createdAt,value
2018-07-21T00:00:41.747Z,21.68
2018-07-21T00:01:41.887Z,21.74
2018-07-21T00:02:41.801Z,21.61
2018-07-21T00:03:41.828Z,21.59
2018-07-21T00:04:41.841Z,21.53
2018-07-21T00:05:41.851Z,21.45
2018-07-21T00:06:42.009Z,21.36
2018-07-21T00:07:41.880Z,21.36
2018-07-21T00:08:41.887Z,21.36
2018-07-21T00:09:41.917Z,21.28
2018-07-21T00:10:41.926Z,21.16
2018-07-21T00:11:42.193Z,21.19
2018-07-21T00:12:41.950Z,21.06
2018-07-21T00:13:41.969Z,21.01
2018-07-21T00:14:41.985Z,21.03
2018-07-21T00:15:42.001Z,21.04
2018-07-21T00:16:42.120Z,21.01
2018-07-21T00:17:42.026Z,20.90
2018-07-21T00:18:42.042Z,20.90
2018-07-21T00:19:42.059Z,20.91
2018-07-21T00:20:42.075Z,20.88
2018-07-21T00:21:42.223Z,20.85
2018-07-21T00:22:42.097Z,20.82
2018-07-21T00:23:42.113Z,20.78
2018-07-21T00:24:42.141Z,20.76
2018-07-21T00:25:42.157Z,20.74
2018-07-21T00:26:42.321Z,20.68
2018-07-21T00:27:42.192Z,20.63
2018-07-21T00:28:42.198Z,20.57
2018-07-21T00:29:42.213Z,20.58
2018-07-21T00:30:42.225Z,20.56
2018-07-21T00:31:42.240Z,20.54
2018-07-21T00:32:42.364Z,20.48
2018-07-21T00:33:42.278Z,20.49
2018-07-21T00:34:42.293Z,20.30
2018-07-21T00:35:42.315Z,20.41
2018-07-21T00:36:42.324Z,20.41
2018-07-21T00:37:42.439Z,20.35
2018-07-21T00:38:42.360Z,20.37
2018-07-21T00:39:42.363Z,20.37
2018-07-21T00:40:42.377Z,20.34
2018-07-21T00:41:42.401Z,20.29
2018-07-21T00:42:42.563Z,20.27
2018-07-21T00:43:42.414Z,20.32
2018-07-21T00:44:42.445Z,20.29
2018-07-21T00:45:42.461Z,20.27
2018-07-21T00:46:42.476Z,20.12
2018-07-21T00:47:42.636Z,20.25
2018-07-21T00:48:42.507Z,20.20
2018-07-21T00:49:42.516Z,20.18
2018-07-21T00:50:42.527Z,20.07
2018-07-21T00:51:42.547Z,20.12
2018-07-21T00:52:42.710Z,20.08
2018-07-21T00:53:42.579Z,20.16
2018-07-21T00:54:42.599Z,20.16
2018-07-21T00:55:42.585Z,20.10
2018-07-21T00:56:42.620Z,20.02
2018-07-21T00:57:42.712Z,20.05
2018-07-21T00:58:42.636Z,20.04
2018-07-21T00:59:42.669Z,19.97
2018-07-21T01:00:42.683Z,19.95
2018-07-21T01:01:42.690Z,19.87
2018-07-21T01:02:42.801Z,19.85
2018-07-21T01:03:42.722Z,19.82
2018-07-21T01:04:42.745Z,19.97
2018-07-21T01:05:42.755Z,19.80
2018-07-21T01:06:42.767Z,19.86
2018-07-21T01:07:42.929Z,19.79
2018-07-21T01:08:42.775Z,19.80
2018-07-21T01:09:42.810Z,19.72
2018-07-21T01:10:42.826Z,19.70
2018-07-21T01:11:42.835Z,19.65
2018-07-21T01:12:43.001Z,19.63
2018-07-21T01:13:42.871Z,19.53
2018-07-21T01:14:42.884Z,19.52
2018-07-21T01:15:42.903Z,19.50
2018-07-21T01:16:42.913Z,19.50
2018-07-21T01:17:43.093Z,19.50
2018-07-21T01:18:42.941Z,19.47
2018-07-21T01:19:42.953Z,19.50
2018-07-21T01:20:42.970Z,19.49
2018-07-21T01:21:42.984Z,19.47
2018-07-21T01:22:43.155Z,19.40
2018-07-21T01:23:43.008Z,19.37
2018-07-21T01:24:43.035Z,19.34
2018-07-21T01:25:43.044Z,19.34
2018-07-21T01:26:43.046Z,19.31
2018-07-21T01:27:43.225Z,19.34
2018-07-21T01:28:43.091Z,19.19
2018-07-21T01:29:43.099Z,19.23
2018-07-21T01:30:43.114Z,19.23
2018-07-21T01:31:43.122Z,19.27
2018-07-21T01:32:43.246Z,19.28
2018-07-21T01:33:43.142Z,19.27
2018-07-21T01:34:43.169Z,19.16
2018-07-21T01:35:43.193Z,19.28
2018-07-21T01:36:43.207Z,19.30
2018-07-21T01:37:43.202Z,19.27
2018-07-21T01:38:43.383Z,19.19
2018-07-21T01:39:43.251Z,19.31
2018-07-21T01:40:43.239Z,19.24
2018-07-21T01:41:43.256Z,19.24
2018-07-21T01:42:43.287Z,19.23
2018-07-21T01:43:43.450Z,19.19
2018-07-21T01:44:43.318Z,19.15
2018-07-21T01:45:43.332Z,19.17
2018-07-21T01:46:43.336Z,19.16
2018-07-21T01:47:43.354Z,19.13
2018-07-21T01:49:43.529Z,19.12
2018-07-21T01:50:43.405Z,19.16
2018-07-21T01:51:43.397Z,19.07
2018-07-21T01:52:43.424Z,19.13
2018-07-21T01:53:43.462Z,19.07
2018-07-21T01:54:43.609Z,19.06
2018-07-21T01:55:43.467Z,19.05
2018-07-21T01:56:43.488Z,19.00
2018-07-21T01:57:43.481Z,19.00
2018-07-21T01:58:43.510Z,19.05
2018-07-21T01:59:43.635Z,18.87
2018-07-21T02:00:43.545Z,18.91
2018-07-21T02:01:43.556Z,18.93
2018-07-21T02:02:43.571Z,18.81
2018-07-21T02:03:43.592Z,18.82
2018-07-21T02:04:43.700Z,18.82
2018-07-21T02:05:43.619Z,18.75
2018-07-21T02:06:43.600Z,18.75
2018-07-21T02:07:43.642Z,18.75
2018-07-21T02:08:43.653Z,18.74
2018-07-21T02:09:43.818Z,18.72
2018-07-21T02:10:43.676Z,18.69
2018-07-21T02:11:43.680Z,18.68
2018-07-21T02:12:43.761Z,18.74
2018-07-21T02:13:43.717Z,18.65
2018-07-21T02:14:43.985Z,18.69
2018-07-21T02:15:43.754Z,18.61
2018-07-21T02:16:43.811Z,18.66
2018-07-21T02:17:43.774Z,18.63
2018-07-21T02:18:43.782Z,18.54
2018-07-21T02:19:44.058Z,18.51
2018-07-21T02:20:43.823Z,18.51
2018-07-21T02:21:43.829Z,18.57
2018-07-21T02:22:43.848Z,18.51
2018-07-21T02:23:43.905Z,18.45
2018-07-21T02:24:44.004Z,18.54
2018-07-21T02:25:43.892Z,18.49
2018-07-21T02:26:43.909Z,18.42
2018-07-21T02:27:43.919Z,18.34
2018-07-21T02:28:43.939Z,18.36
2018-07-21T02:29:44.092Z,18.34
2018-07-21T02:30:43.957Z,18.31
2018-07-21T02:31:43.977Z,18.27
2018-07-21T02:32:43.996Z,18.35
2018-07-21T02:33:43.999Z,18.32
2018-07-21T02:34:44.259Z,18.34
2018-07-21T02:35:44.030Z,18.27
2018-07-21T02:36:44.042Z,18.32
2018-07-21T02:37:44.057Z,18.29
2018-07-21T02:38:44.077Z,18.27
2018-07-21T02:39:44.071Z,18.31
2018-07-21T02:40:44.247Z,18.27
2018-07-21T02:41:44.109Z,18.26
2018-07-21T02:42:44.124Z,18.29
2018-07-21T02:43:44.119Z,18.26
2018-07-21T02:44:44.158Z,18.29
2018-07-21T02:45:44.244Z,18.29
2018-07-21T02:46:44.252Z,18.26
2018-07-21T02:47:44.189Z,18.41
2018-07-21T02:48:44.187Z,18.41
2018-07-21T02:49:44.265Z,18.36
2018-07-21T02:50:44.239Z,18.39
2018-07-21T02:51:44.400Z,18.42
2018-07-21T02:52:44.264Z,18.42
2018-07-21T02:53:44.282Z,18.47
2018-07-21T02:54:44.281Z,18.44
2018-07-21T02:55:44.303Z,18.29
2018-07-21T02:56:44.571Z,18.29
2018-07-21T02:57:44.336Z,18.35
2018-07-21T02:58:44.325Z,18.31
2018-07-21T02:59:44.363Z,18.41
2018-07-21T03:00:44.374Z,18.34
2018-07-21T03:01:44.518Z,18.31
2018-07-21T03:02:44.380Z,18.32
2018-07-21T03:03:44.396Z,18.29
2018-07-21T03:04:44.432Z,18.26
2018-07-21T03:05:44.443Z,18.24
2018-07-21T03:06:44.557Z,18.26
2018-07-21T03:07:44.465Z,18.34
2018-07-21T03:08:44.485Z,18.27
2018-07-21T03:09:44.499Z,18.24
2018-07-21T03:10:44.508Z,18.24
2018-07-21T03:11:44.614Z,18.24
2018-07-21T03:12:44.516Z,18.20
2018-07-21T03:13:44.546Z,18.26
2018-07-21T03:14:44.563Z,18.26
2018-07-21T03:15:44.573Z,18.21
2018-07-21T03:16:44.684Z,18.31
2018-07-21T03:17:44.601Z,18.24
2018-07-21T03:18:44.616Z,18.27
2018-07-21T03:19:44.623Z,18.27
2018-07-21T03:20:44.649Z,18.31
2018-07-21T03:21:44.913Z,18.29
2018-07-21T03:22:44.677Z,18.29
2018-07-21T03:23:44.686Z,18.41
2018-07-21T03:24:44.698Z,18.36
2018-07-21T03:25:44.711Z,18.38
2018-07-21T03:26:44.828Z,18.49
2018-07-21T03:27:44.740Z,18.45
2018-07-21T03:28:44.757Z,18.53
2018-07-21T03:29:44.747Z,18.56
2018-07-21T03:30:44.886Z,18.54
2018-07-21T03:31:44.943Z,18.57
2018-07-21T03:32:44.806Z,18.54
2018-07-21T03:33:44.820Z,18.65
2018-07-21T03:34:44.841Z,18.57
2018-07-21T03:35:44.851Z,18.65
2018-07-21T03:36:45.017Z,18.61
2018-07-21T03:37:44.881Z,18.53
2018-07-21T03:38:44.900Z,18.54
2018-07-21T03:39:44.876Z,18.65
2018-07-21T03:40:44.898Z,18.65
2018-07-21T03:41:45.078Z,18.49
2018-07-21T03:42:44.946Z,18.54
2018-07-21T03:43:44.961Z,18.51
2018-07-21T03:44:44.972Z,18.54
2018-07-21T03:45:44.988Z,18.36
2018-07-21T03:46:45.141Z,18.34
2018-07-21T03:47:45.013Z,18.42
2018-07-21T03:48:45.023Z,18.41
2018-07-21T03:49:45.038Z,18.39
2018-07-21T03:50:45.054Z,18.32
2018-07-21T03:51:45.214Z,18.39
2018-07-21T03:52:45.062Z,18.41
2018-07-21T03:53:45.100Z,18.39
2018-07-21T03:54:45.100Z,18.35
2018-07-21T03:55:45.121Z,18.36
2018-07-21T03:56:45.135Z,18.39
2018-07-21T03:57:45.241Z,18.39
2018-07-21T03:58:45.161Z,18.50
2018-07-21T03:59:45.180Z,18.51
2018-07-21T04:00:45.181Z,18.50
2018-07-21T04:01:45.187Z,18.63
2018-07-21T04:02:45.217Z,18.54
2018-07-21T04:03:45.389Z,18.61
2018-07-21T04:04:45.227Z,18.60
2018-07-21T04:05:45.255Z,18.63
2018-07-21T04:06:45.280Z,18.69
2018-07-21T04:07:45.286Z,18.61
2018-07-21T04:08:45.427Z,18.74
2018-07-21T04:09:45.320Z,18.74
2018-07-21T04:10:45.326Z,18.72
2018-07-21T04:11:45.334Z,18.71
2018-07-21T04:12:45.352Z,18.75
2018-07-21T04:13:45.467Z,18.72
2018-07-21T04:14:45.379Z,18.79
2018-07-21T04:15:45.379Z,18.75
2018-07-21T04:16:45.405Z,18.75
2018-07-21T04:17:45.421Z,18.79
2018-07-21T04:18:45.591Z,18.72
2018-07-21T04:19:45.457Z,18.82
2018-07-21T04:20:45.467Z,18.82
2018-07-21T04:21:45.472Z,18.79
2018-07-21T04:22:45.490Z,18.76
2018-07-21T04:23:45.604Z,18.74
2018-07-21T04:24:45.513Z,18.75
2018-07-21T04:25:45.538Z,18.82
2018-07-21T04:26:45.546Z,18.84
2018-07-21T04:27:45.558Z,18.81
2018-07-21T04:28:45.830Z,18.81
2018-07-21T04:29:45.589Z,18.79
2018-07-21T04:30:45.602Z,18.81
2018-07-21T04:31:45.621Z,18.84
2018-07-21T04:32:45.634Z,18.87
2018-07-21T04:33:45.741Z,18.89
2018-07-21T04:34:45.657Z,18.86
2018-07-21T04:35:45.672Z,18.87
2018-07-21T04:36:45.687Z,18.86
2018-07-21T04:37:45.697Z,18.86
2018-07-21T04:38:45.840Z,18.87
2018-07-21T04:39:45.726Z,18.84
2018-07-21T04:40:45.738Z,18.79
2018-07-21T04:41:45.752Z,18.89
2018-07-21T04:42:45.768Z,18.79
2018-07-21T04:43:45.928Z,18.79
2018-07-21T04:44:45.788Z,18.75
2018-07-21T04:45:45.781Z,18.72
2018-07-21T04:46:45.826Z,18.74
2018-07-21T04:47:45.835Z,18.69
2018-07-21T04:48:46.102Z,18.61
2018-07-21T04:49:45.866Z,18.65
2018-07-21T04:50:45.874Z,18.51
2018-07-21T04:51:45.867Z,18.47
2018-07-21T04:52:45.908Z,18.39
2018-07-21T04:53:46.058Z,18.36
2018-07-21T04:54:45.928Z,18.42
2018-07-21T04:55:45.923Z,18.39
2018-07-21T04:56:45.961Z,18.26
2018-07-21T04:57:45.952Z,18.24
2018-07-21T04:58:46.084Z,18.26
2018-07-21T04:59:45.999Z,18.16
2018-07-21T05:00:46.035Z,18.08
2018-07-21T05:01:46.033Z,18.06
2018-07-21T05:02:46.020Z,17.95
2018-07-21T05:03:46.201Z,18.02
2018-07-21T05:04:46.067Z,17.92
2018-07-21T05:05:46.067Z,17.84
2018-07-21T05:06:46.090Z,17.90
2018-07-21T05:07:46.115Z,17.77
2018-07-21T05:08:46.112Z,17.92
2018-07-21T05:09:46.237Z,17.79
2018-07-21T05:10:46.152Z,17.71
2018-07-21T05:11:46.165Z,17.73
2018-07-21T05:12:46.173Z,17.74
2018-07-21T05:13:46.190Z,17.58
2018-07-21T05:14:46.187Z,17.52
2018-07-21T05:15:46.365Z,17.54
2018-07-21T05:16:46.220Z,17.45
2018-07-21T05:17:46.220Z,17.49
2018-07-21T05:18:46.259Z,17.43
2018-07-21T05:19:46.273Z,17.39
2018-07-21T05:20:46.428Z,17.30
2018-07-21T05:21:46.298Z,17.30
2018-07-21T05:22:46.306Z,17.24
2018-07-21T05:23:46.312Z,17.21
2018-07-21T05:24:46.328Z,17.28
2018-07-21T05:25:46.495Z,17.10
2018-07-21T05:26:46.351Z,17.15
2018-07-21T05:27:46.373Z,17.20
2018-07-21T05:28:46.390Z,17.12
2018-07-21T05:29:46.396Z,17.17
2018-07-21T05:30:46.662Z,17.09
2018-07-21T05:31:46.416Z,17.13
2018-07-21T05:32:46.438Z,17.07
2018-07-21T05:33:46.450Z,17.00
2018-07-21T05:34:46.464Z,17.07
2018-07-21T05:35:46.574Z,16.95
2018-07-21T05:36:46.497Z,16.97
2018-07-21T05:37:46.493Z,16.91
2018-07-21T05:38:46.535Z,16.91
2018-07-21T05:39:46.521Z,16.92
2018-07-21T05:40:46.686Z,16.90
2018-07-21T05:41:46.552Z,16.82
2018-07-21T05:42:46.567Z,16.80
2018-07-21T05:43:46.575Z,16.80
2018-07-21T05:44:47.108Z,16.84
2018-07-21T05:45:46.710Z,16.81
2018-07-21T05:46:46.619Z,16.80
2018-07-21T05:47:46.631Z,16.81
2018-07-21T05:48:46.641Z,16.74
2018-07-21T05:49:46.653Z,16.69
2018-07-21T05:50:46.819Z,16.76
2018-07-21T05:51:46.683Z,16.67
2018-07-21T05:52:46.693Z,16.72
2018-07-21T05:53:46.687Z,16.72
2018-07-21T05:54:46.722Z,16.69
2018-07-21T05:55:46.866Z,16.65
2018-07-21T05:56:46.751Z,16.65
2018-07-21T05:57:46.759Z,16.57
2018-07-21T05:58:46.775Z,16.58
2018-07-21T05:59:46.788Z,16.54
2018-07-21T06:00:46.896Z,16.51
2018-07-21T06:01:46.785Z,16.49
2018-07-21T06:02:46.889Z,16.45
2018-07-21T06:03:46.814Z,16.42
2018-07-21T06:04:46.849Z,16.45
2018-07-21T06:05:47.008Z,16.36
2018-07-21T06:06:46.875Z,16.34
2018-07-21T06:07:46.882Z,16.42
2018-07-21T06:08:46.898Z,16.45
2018-07-21T06:09:46.917Z,16.37
2018-07-21T06:10:47.021Z,16.42
2018-07-21T06:11:46.956Z,16.42
2018-07-21T06:12:46.951Z,16.49
2018-07-21T06:13:46.966Z,16.48
2018-07-21T06:14:46.977Z,16.55
2018-07-21T06:15:47.082Z,16.51
2018-07-21T06:16:47.003Z,16.59
2018-07-21T06:17:47.008Z,16.59
2018-07-21T06:18:47.094Z,16.63
2018-07-21T06:19:47.038Z,16.54
2018-07-21T06:20:47.180Z,16.65
2018-07-21T06:21:47.061Z,16.49
2018-07-21T06:22:47.092Z,16.62
2018-07-21T06:23:47.142Z,16.55
2018-07-21T06:24:47.097Z,16.55
2018-07-21T06:25:47.112Z,16.51
2018-07-21T06:26:47.380Z,16.55
2018-07-21T06:27:47.114Z,16.62
2018-07-21T06:28:47.131Z,16.66
2018-07-21T06:29:47.159Z,16.65
2018-07-21T06:30:47.173Z,16.62
2018-07-21T06:31:47.185Z,16.66
2018-07-21T06:32:47.315Z,16.69
2018-07-21T06:33:47.221Z,16.59
2018-07-21T06:34:47.230Z,16.66
2018-07-21T06:35:47.244Z,16.63
2018-07-21T06:36:47.247Z,16.73
2018-07-21T06:37:47.396Z,16.69
2018-07-21T06:38:47.281Z,16.70
2018-07-21T06:39:47.296Z,16.74
2018-07-21T06:40:47.300Z,16.81
2018-07-21T06:41:47.310Z,16.72
2018-07-21T06:42:47.474Z,16.73
2018-07-21T06:43:47.339Z,16.72
2018-07-21T06:44:47.348Z,16.70
2018-07-21T06:45:47.343Z,16.72
2018-07-21T06:46:47.402Z,16.72
2018-07-21T06:47:47.475Z,16.69
2018-07-21T06:48:47.402Z,16.73
2018-07-21T06:49:47.418Z,16.74
2018-07-21T06:50:47.431Z,16.69
2018-07-21T06:51:47.439Z,16.73
2018-07-21T06:52:47.701Z,16.70
2018-07-21T06:53:47.463Z,16.76
2018-07-21T06:54:47.476Z,16.69
2018-07-21T06:55:47.484Z,16.76
2018-07-21T06:56:47.502Z,16.69
2018-07-21T06:57:47.615Z,16.74
2018-07-21T06:58:47.524Z,16.74
2018-07-21T06:59:47.542Z,16.72
2018-07-21T07:00:47.552Z,16.80
2018-07-21T07:01:47.561Z,16.82
2018-07-21T07:02:47.733Z,16.66
2018-07-21T07:03:47.568Z,16.69
2018-07-21T07:04:47.601Z,16.72
2018-07-21T07:05:47.607Z,16.72
2018-07-21T07:06:47.627Z,16.59
2018-07-21T07:07:47.739Z,16.62
2018-07-21T07:08:47.655Z,16.66
2018-07-21T07:09:47.658Z,16.57
2018-07-21T07:10:47.659Z,16.55
2018-07-21T07:11:47.685Z,16.58
2018-07-21T07:12:47.804Z,16.52
2018-07-21T07:13:47.707Z,16.48
2018-07-21T07:14:47.728Z,16.48
2018-07-21T07:15:47.744Z,16.54
2018-07-21T07:16:47.757Z,16.47
2018-07-21T07:17:47.907Z,16.42
2018-07-21T07:18:47.782Z,16.36
2018-07-21T07:19:47.796Z,16.40
2018-07-21T07:20:47.797Z,16.39
2018-07-21T07:21:47.820Z,16.39
2018-07-21T07:22:47.956Z,16.47
2018-07-21T07:23:47.839Z,16.45
2018-07-21T07:24:47.855Z,16.44
2018-07-21T07:25:47.864Z,16.45
2018-07-21T07:26:47.878Z,16.42
2018-07-21T07:27:48.039Z,16.48
2018-07-21T07:28:47.885Z,16.44
2018-07-21T07:29:47.893Z,16.48
2018-07-21T07:30:47.924Z,16.44
2018-07-21T07:31:47.939Z,16.51
2018-07-21T07:32:48.102Z,16.51
2018-07-21T07:33:47.951Z,16.54
2018-07-21T07:34:47.974Z,16.54
2018-07-21T07:35:47.995Z,16.58
2018-07-21T07:36:47.982Z,16.62
2018-07-21T07:37:48.165Z,16.63
2018-07-21T07:38:48.024Z,16.63
2018-07-21T07:39:48.036Z,16.65
2018-07-21T07:40:48.038Z,16.76
2018-07-21T07:41:48.060Z,16.73
2018-07-21T07:42:48.078Z,16.69
2018-07-21T07:43:48.189Z,16.74
2018-07-21T07:44:48.108Z,16.81
2018-07-21T07:45:48.089Z,16.81
2018-07-21T07:46:48.123Z,16.81
2018-07-21T07:47:48.144Z,16.81
2018-07-21T07:48:48.165Z,16.74
2018-07-21T07:49:48.262Z,16.82
2018-07-21T07:50:48.173Z,16.80
2018-07-21T07:51:48.173Z,16.74
2018-07-21T07:52:48.201Z,16.81
2018-07-21T07:53:48.215Z,16.90
2018-07-21T07:54:48.385Z,16.81
2018-07-21T07:55:48.242Z,16.88
2018-07-21T07:56:48.253Z,16.91
2018-07-21T07:57:48.258Z,16.97
2018-07-21T07:58:48.272Z,16.90
2018-07-21T07:59:48.392Z,17.03
2018-07-21T08:00:48.351Z,17.00
2018-07-21T08:01:48.324Z,17.02
2018-07-21T08:02:48.329Z,17.05
2018-07-21T08:03:48.349Z,17.07
2018-07-21T08:04:48.496Z,17.13
2018-07-21T08:05:48.368Z,17.13
2018-07-21T08:06:48.379Z,17.10
2018-07-21T08:07:48.393Z,17.17
2018-07-21T08:08:48.402Z,17.15
2018-07-21T08:09:48.523Z,17.15
2018-07-21T08:10:48.433Z,17.10
2018-07-21T08:11:48.475Z,17.13
2018-07-21T08:12:48.455Z,17.22
2018-07-21T08:13:48.478Z,17.15
2018-07-21T08:14:48.624Z,17.21
2018-07-21T08:15:48.525Z,17.20
2018-07-21T08:16:48.503Z,17.13
2018-07-21T08:17:48.517Z,17.17
2018-07-21T08:18:48.532Z,17.15
2018-07-21T08:19:48.692Z,17.12
2018-07-21T08:20:48.559Z,17.10
2018-07-21T08:21:48.566Z,17.10
2018-07-21T08:22:48.580Z,17.09
2018-07-21T08:23:48.598Z,16.92
2018-07-21T08:24:48.789Z,17.02
2018-07-21T08:25:48.619Z,17.05
2018-07-21T08:26:48.634Z,17.05
2018-07-21T08:27:48.644Z,17.07
2018-07-21T08:28:48.655Z,16.99
2018-07-21T08:29:48.824Z,17.03
2018-07-21T08:30:48.681Z,17.00
2018-07-21T08:31:48.698Z,17.05
2018-07-21T08:32:48.708Z,17.05
2018-07-21T08:33:48.724Z,17.05
2018-07-21T08:34:48.867Z,17.06
2018-07-21T08:35:48.749Z,17.09
2018-07-21T08:36:48.757Z,17.07
2018-07-21T08:37:48.754Z,17.09
2018-07-21T08:38:48.794Z,17.07
2018-07-21T08:39:49.028Z,17.06
2018-07-21T08:40:48.812Z,17.09
2018-07-21T08:41:48.822Z,17.07
2018-07-21T08:42:48.834Z,17.13
2018-07-21T08:43:48.846Z,17.12
2018-07-21T08:44:49.011Z,17.07
2018-07-21T08:45:48.880Z,17.12
2018-07-21T08:46:48.884Z,17.12
2018-07-21T08:47:48.896Z,17.12
2018-07-21T08:48:48.895Z,17.12
2018-07-21T08:49:49.089Z,17.13
2018-07-21T08:50:48.917Z,17.17
2018-07-21T08:51:48.952Z,17.12
2018-07-21T08:52:48.963Z,17.13
2018-07-21T08:53:48.975Z,17.10
2018-07-21T08:54:49.098Z,17.09
2018-07-21T08:55:49.095Z,17.07
2018-07-21T08:56:49.016Z,17.09
2018-07-21T08:57:49.020Z,17.13
2018-07-21T08:58:49.041Z,17.09
2018-07-21T08:59:49.191Z,17.07
2018-07-21T09:00:49.071Z,17.12
2018-07-21T09:01:49.061Z,17.20
2018-07-21T09:02:49.095Z,17.07
2018-07-21T09:03:49.097Z,17.13
2018-07-21T09:04:49.113Z,17.18
2018-07-21T09:05:49.300Z,17.12
2018-07-21T09:06:49.137Z,17.22
2018-07-21T09:07:49.156Z,17.22
2018-07-21T09:08:49.161Z,17.22
2018-07-21T09:09:49.157Z,17.24
2018-07-21T09:10:49.343Z,17.24
2018-07-21T09:11:49.184Z,17.10
2018-07-21T09:12:49.220Z,17.22
2018-07-21T09:13:49.232Z,17.18
2018-07-21T09:14:49.248Z,17.13
2018-07-21T09:15:49.390Z,17.18
2018-07-21T09:16:49.269Z,17.13
2018-07-21T09:17:49.260Z,17.20
2018-07-21T09:18:49.298Z,17.21
2018-07-21T09:19:49.307Z,17.13
2018-07-21T09:20:49.567Z,17.18
2018-07-21T09:21:49.330Z,17.18
2018-07-21T09:22:49.321Z,17.18
2018-07-21T09:23:49.362Z,17.22
2018-07-21T09:24:49.345Z,17.18
2018-07-21T09:25:49.463Z,17.17
2018-07-21T09:26:49.394Z,17.12
2018-07-21T09:27:49.385Z,17.21
2018-07-21T09:28:49.419Z,17.20
2018-07-21T09:29:49.439Z,17.22
2018-07-21T09:30:49.526Z,17.17
2018-07-21T09:31:49.461Z,17.13
2018-07-21T09:32:49.468Z,17.12
2018-07-21T09:33:49.481Z,17.13
2018-07-21T09:34:49.476Z,17.17
2018-07-21T09:35:49.655Z,17.13
2018-07-21T09:36:49.521Z,17.09
2018-07-21T09:37:49.532Z,17.10
2018-07-21T09:38:49.535Z,17.03
2018-07-21T09:39:49.564Z,16.95
2018-07-21T09:40:49.720Z,16.90
2018-07-21T09:41:49.566Z,16.73
2018-07-21T09:42:49.610Z,16.84
2018-07-21T09:43:49.590Z,16.73
2018-07-21T09:44:49.615Z,16.74
2018-07-21T09:45:49.785Z,16.80
2018-07-21T09:46:49.642Z,16.70
2018-07-21T09:47:49.661Z,16.73
2018-07-21T09:48:49.669Z,16.74
2018-07-21T09:49:49.679Z,16.74
2018-07-21T09:50:49.847Z,16.80
2018-07-21T09:51:49.692Z,16.76
2018-07-21T09:52:49.722Z,16.76
2018-07-21T09:53:49.739Z,16.76
2018-07-21T09:54:49.725Z,16.76
2018-07-21T09:55:50.090Z,16.74
2018-07-21T09:56:49.761Z,16.81
2018-07-21T09:57:49.791Z,16.73
2018-07-21T09:58:49.815Z,16.77
2018-07-21T09:59:49.806Z,16.77
2018-07-21T10:00:49.921Z,16.77
2018-07-21T10:01:49.835Z,16.73
2018-07-21T10:02:49.836Z,16.73
2018-07-21T10:03:49.842Z,16.67
2018-07-21T10:04:49.873Z,16.65
2018-07-21T10:05:50.038Z,16.74
2018-07-21T10:06:49.902Z,16.80
2018-07-21T10:07:49.915Z,16.70
2018-07-21T10:08:49.920Z,16.82
2018-07-21T10:09:49.937Z,16.80
2018-07-21T10:10:50.086Z,16.80
2018-07-21T10:11:49.943Z,16.76
2018-07-21T10:12:49.970Z,16.80
2018-07-21T10:13:49.983Z,16.81
2018-07-21T10:14:49.987Z,16.90
2018-07-21T10:15:50.015Z,16.84
2018-07-21T10:16:50.123Z,16.94
2018-07-21T10:17:50.024Z,16.94
2018-07-21T10:18:50.059Z,16.92
2018-07-21T10:19:50.071Z,16.97
2018-07-21T10:20:50.083Z,16.92
2018-07-21T10:21:50.131Z,17.09
2018-07-21T10:22:50.204Z,17.07
2018-07-21T10:23:50.120Z,17.12
2018-07-21T10:24:50.124Z,17.17
2018-07-21T10:25:50.144Z,17.13
2018-07-21T10:26:50.163Z,17.18
2018-07-21T10:27:50.294Z,17.35
2018-07-21T10:28:50.182Z,17.35
2018-07-21T10:29:50.193Z,17.35
2018-07-21T10:30:50.215Z,17.38
2018-07-21T10:31:50.219Z,17.42
2018-07-21T10:32:50.362Z,17.43
2018-07-21T10:33:50.249Z,17.57
2018-07-21T10:34:50.257Z,17.57
2018-07-21T10:35:50.294Z,17.66
2018-07-21T10:36:50.288Z,17.66
2018-07-21T10:37:50.401Z,17.63
2018-07-21T10:38:50.288Z,17.83
2018-07-21T10:39:50.331Z,17.87
2018-07-21T10:40:50.319Z,17.90
2018-07-21T10:41:50.336Z,17.80
2018-07-21T10:42:50.540Z,17.92
2018-07-21T10:43:50.385Z,17.96
2018-07-21T10:44:50.389Z,18.03
2018-07-21T10:45:50.389Z,18.08
2018-07-21T10:46:50.418Z,18.27
2018-07-21T10:47:50.584Z,18.26
2018-07-21T10:48:50.426Z,18.36
2018-07-21T10:49:50.464Z,18.45
2018-07-21T10:50:50.479Z,18.42
2018-07-21T10:51:50.487Z,18.53
2018-07-21T10:52:50.599Z,18.60
2018-07-21T10:53:50.494Z,18.59
2018-07-21T10:54:50.535Z,18.71
2018-07-21T10:55:50.548Z,18.82
2018-07-21T10:56:50.559Z,18.91
2018-07-21T10:57:50.720Z,19.07
2018-07-21T10:58:50.590Z,19.16
2018-07-21T10:59:50.599Z,19.17
2018-07-21T11:00:50.596Z,19.24
2018-07-21T11:01:50.606Z,19.37
2018-07-21T11:02:50.790Z,19.52
2018-07-21T11:03:50.637Z,19.53
2018-07-21T11:04:50.674Z,19.63
2018-07-21T11:05:50.663Z,19.65
2018-07-21T11:06:50.695Z,19.78
2018-07-21T11:07:50.810Z,19.93
2018-07-21T11:08:50.727Z,19.93
2018-07-21T11:09:50.728Z,20.07
2018-07-21T11:10:50.792Z,20.18
2018-07-21T11:11:50.774Z,20.19
2018-07-21T11:12:50.938Z,20.23
2018-07-21T11:13:50.802Z,20.32
2018-07-21T11:14:50.812Z,20.42
2018-07-21T11:15:50.834Z,20.53
2018-07-21T11:16:50.852Z,20.57
2018-07-21T11:17:50.968Z,20.78
2018-07-21T11:18:50.879Z,20.86
2018-07-21T11:19:50.895Z,20.98
2018-07-21T11:20:50.918Z,21.15
2018-07-21T11:21:50.934Z,21.18
2018-07-21T11:22:51.100Z,21.28
2018-07-21T11:23:50.943Z,21.34
2018-07-21T11:24:50.978Z,21.40
2018-07-21T11:25:50.996Z,21.40
2018-07-21T11:26:51.009Z,21.59
2018-07-21T11:27:51.008Z,21.62
2018-07-21T11:28:51.198Z,21.74
2018-07-21T11:29:51.067Z,21.83
2018-07-21T11:30:51.057Z,22.02
2018-07-21T11:31:51.097Z,22.09
2018-07-21T11:32:51.088Z,22.18
2018-07-21T11:33:51.282Z,22.26
2018-07-21T11:34:51.144Z,22.26
2018-07-21T11:35:51.325Z,22.31
2018-07-21T11:36:51.182Z,22.42
2018-07-21T11:37:51.197Z,22.34
2018-07-21T11:38:51.366Z,22.42
2018-07-21T11:39:51.232Z,22.34
2018-07-21T11:40:51.246Z,22.39
2018-07-21T11:41:51.267Z,22.42
2018-07-21T11:42:51.285Z,22.51
2018-07-21T11:43:51.454Z,22.48
2018-07-21T11:44:51.316Z,22.52
2018-07-21T11:45:51.317Z,22.46
2018-07-21T11:46:51.352Z,22.39
2018-07-21T11:47:51.354Z,22.33
2018-07-21T11:48:51.485Z,22.41
2018-07-21T11:49:51.401Z,22.39
2018-07-21T11:50:51.402Z,22.45
2018-07-21T11:51:51.440Z,22.34
2018-07-21T11:52:51.455Z,22.23
2018-07-21T11:53:51.574Z,22.20
2018-07-21T11:54:51.492Z,22.08
2018-07-21T11:55:51.504Z,22.09
2018-07-21T11:56:51.523Z,22.09
2018-07-21T11:57:51.540Z,22.20
2018-07-21T11:58:51.808Z,22.27
2018-07-21T11:59:51.575Z,22.33
2018-07-21T12:00:51.596Z,22.54
2018-07-21T12:01:51.651Z,22.48
2018-07-21T12:02:51.633Z,22.60
2018-07-21T12:03:51.894Z,22.69
2018-07-21T12:04:51.661Z,22.78
2018-07-21T12:05:51.681Z,22.79
2018-07-21T12:06:51.697Z,22.85
2018-07-21T12:07:51.712Z,22.88
2018-07-21T12:08:51.880Z,23.04
2018-07-21T12:09:51.751Z,23.26
2018-07-21T12:10:51.775Z,23.41
2018-07-21T12:11:51.789Z,23.56
2018-07-21T12:12:51.810Z,23.74
2018-07-21T12:13:51.974Z,23.85
2018-07-21T12:14:51.852Z,23.93
2018-07-21T12:15:51.865Z,24.00
2018-07-21T12:16:51.881Z,24.00
2018-07-21T12:17:51.905Z,24.03
2018-07-21T12:18:52.071Z,24.19
2018-07-21T12:19:51.940Z,24.32
2018-07-21T12:20:51.937Z,24.39
2018-07-21T12:21:51.980Z,24.39
2018-07-21T12:22:51.999Z,24.44
2018-07-21T12:23:52.013Z,24.46
2018-07-21T12:24:52.188Z,24.44
2018-07-21T12:25:52.059Z,24.52
2018-07-21T12:26:52.065Z,24.54
2018-07-21T12:27:52.091Z,24.45
2018-07-21T12:28:52.119Z,24.52
2018-07-21T12:29:52.241Z,24.51
2018-07-21T12:30:52.146Z,24.45
2018-07-21T12:31:52.172Z,24.48
2018-07-21T12:32:52.191Z,24.59
2018-07-21T12:33:52.210Z,24.64
2018-07-21T12:34:52.463Z,24.82
2018-07-21T12:35:52.252Z,25.02
2018-07-21T12:36:52.267Z,25.00
2018-07-21T12:37:52.269Z,25.22
2018-07-21T12:38:52.306Z,25.27
2018-07-21T12:39:52.409Z,25.39
2018-07-21T12:40:52.344Z,25.49
2018-07-21T12:41:52.372Z,25.67
2018-07-21T12:42:52.389Z,25.84
2018-07-21T12:43:52.391Z,26.01
2018-07-21T12:44:52.621Z,25.94
2018-07-21T12:45:52.444Z,25.96
2018-07-21T12:46:52.522Z,25.88
2018-07-21T12:47:52.471Z,25.99
2018-07-21T12:48:52.499Z,26.04
2018-07-21T12:49:52.682Z,26.16
2018-07-21T12:50:52.557Z,26.16
2018-07-21T12:51:52.574Z,26.32
2018-07-21T12:52:52.591Z,26.52
2018-07-21T12:53:52.600Z,26.71